createdAt,value
2019-03-08T00:00:27.089Z,2.10
2019-03-08T00:02:54.305Z,1.93
2019-03-08T00:05:21.692Z,1.70
2019-03-08T00:07:48.953Z,1.50
2019-03-08T00:10:16.300Z,2.23
2019-03-08T00:12:43.743Z,1.70
2019-03-08T00:15:11.456Z,1.77
2019-03-08T00:17:38.672Z,2.30
2019-03-08T00:20:06.468Z,1.97
2019-03-08T00:22:33.706Z,1.70
2019-03-08T00:25:00.971Z,1.50
2019-03-08T00:27:28.260Z,1.90
2019-03-08T00:29:55.497Z,2.27
2019-03-08T00:32:22.769Z,1.60
2019-03-08T00:34:50.171Z,2.00
2019-03-08T00:37:17.613Z,2.00
2019-03-08T00:39:44.872Z,2.40
2019-03-08T00:42:12.102Z,2.57
2019-03-08T00:44:39.479Z,2.20
2019-03-08T00:47:06.709Z,2.90
2019-03-08T00:49:33.969Z,2.70
2019-03-08T00:52:01.248Z,2.83
2019-03-08T00:54:28.701Z,1.90
2019-03-08T00:56:55.938Z,2.07
2019-03-08T00:59:23.200Z,1.90
2019-03-08T01:01:50.461Z,1.97
2019-03-08T01:04:17.726Z,2.23
2019-03-08T01:06:44.990Z,2.10
2019-03-08T01:09:12.209Z,3.00
2019-03-08T01:11:39.486Z,2.30
2019-03-08T01:14:08.014Z,2.27
2019-03-08T01:16:35.279Z,2.83
2019-03-08T01:19:02.542Z,2.37
2019-03-08T01:21:29.866Z,2.77
2019-03-08T01:23:57.131Z,3.27
2019-03-08T01:26:24.375Z,2.43
2019-03-08T01:28:51.623Z,2.40
2019-03-08T01:31:18.884Z,2.50
2019-03-08T01:33:46.104Z,2.50
2019-03-08T01:36:13.355Z,1.93
2019-03-08T01:38:40.616Z,2.00
2019-03-08T01:41:07.859Z,2.97
2019-03-08T01:43:35.319Z,2.93
2019-03-08T01:46:02.570Z,2.80
2019-03-08T01:48:29.895Z,2.87
2019-03-08T01:50:57.229Z,2.13
2019-03-08T01:53:24.466Z,2.47
2019-03-08T01:55:51.718Z,2.20
2019-03-08T01:58:19.005Z,2.30
2019-03-08T02:00:46.350Z,2.50
2019-03-08T02:03:13.586Z,2.20
2019-03-08T02:05:40.874Z,1.73
2019-03-08T02:08:08.146Z,2.03
2019-03-08T02:10:35.500Z,2.07
2019-03-08T02:13:02.994Z,2.00
2019-03-08T02:15:30.613Z,1.97
2019-03-08T02:17:57.879Z,2.20
2019-03-08T02:20:25.181Z,3.00
2019-03-08T02:22:52.459Z,3.37
2019-03-08T02:25:19.824Z,2.80
2019-03-08T02:27:48.509Z,3.37
2019-03-08T02:30:18.833Z,2.90
2019-03-08T02:32:46.176Z,3.87
2019-03-08T02:35:14.956Z,3.30
2019-03-08T02:37:42.234Z,3.07
2019-03-08T02:40:30.020Z,2.60
2019-03-08T02:42:57.914Z,2.67
2019-03-08T02:45:25.276Z,2.60
2019-03-08T02:47:52.555Z,2.70
2019-03-08T02:50:19.858Z,2.43
2019-03-08T02:52:47.109Z,3.17
2019-03-08T02:55:14.409Z,3.50
2019-03-08T02:57:41.654Z,3.43
2019-03-08T03:00:09.551Z,2.90
2019-03-08T03:02:36.841Z,3.40
2019-03-08T03:05:04.522Z,3.13
2019-03-08T03:07:31.746Z,3.60
2019-03-08T03:09:59.067Z,3.50
2019-03-08T03:12:26.296Z,3.10
2019-03-08T03:14:53.740Z,3.30
2019-03-08T03:17:21.042Z,2.40
2019-03-08T03:19:48.267Z,3.00
2019-03-08T03:22:15.502Z,4.33
2019-03-08T03:24:42.887Z,2.90
2019-03-08T03:27:10.132Z,4.57
2019-03-08T03:29:37.360Z,3.37
2019-03-08T03:32:04.829Z,4.33
2019-03-08T03:34:32.074Z,4.33
2019-03-08T03:36:59.378Z,5.13
2019-03-08T03:39:26.618Z,5.00
2019-03-08T03:41:53.937Z,4.23
2019-03-08T03:44:21.197Z,5.00
2019-03-08T03:46:48.436Z,4.90
2019-03-08T03:49:15.695Z,4.50
2019-03-08T03:51:42.942Z,5.90
2019-03-08T03:54:10.197Z,5.03
2019-03-08T03:56:37.479Z,6.00
2019-03-08T03:59:04.728Z,5.33
2019-03-08T04:01:36.286Z,6.00
2019-03-08T04:04:03.923Z,6.57
2019-03-08T04:06:31.157Z,5.83
2019-03-08T04:08:58.462Z,5.53
2019-03-08T04:11:25.707Z,4.90
2019-03-08T04:13:52.963Z,5.33
2019-03-08T04:16:20.205Z,5.60
2019-03-08T04:18:47.487Z,5.33
2019-03-08T04:21:14.763Z,6.30
2019-03-08T04:23:42.267Z,5.50
2019-03-08T04:26:09.540Z,6.60
2019-03-08T04:28:36.785Z,6.50
2019-03-08T04:31:04.059Z,6.63
2019-03-08T04:33:31.289Z,7.43
2019-03-08T04:35:58.529Z,5.60
2019-03-08T04:38:25.803Z,7.13
2019-03-08T04:40:53.045Z,5.90
2019-03-08T04:43:20.289Z,7.23
2019-03-08T04:45:47.583Z,8.10
2019-03-08T04:48:14.823Z,4.40
2019-03-08T04:50:42.239Z,5.30
2019-03-08T04:53:09.484Z,4.67
2019-03-08T04:55:36.726Z,4.60
2019-03-08T04:58:04.003Z,5.43
2019-03-08T05:00:31.239Z,4.30
2019-03-08T05:02:58.495Z,5.33
2019-03-08T05:05:25.772Z,5.40
2019-03-08T05:07:53.001Z,5.30
2019-03-08T05:10:22.836Z,6.67
2019-03-08T05:12:50.073Z,6.00
2019-03-08T05:15:17.310Z,4.90
2019-03-08T05:17:44.561Z,5.23
2019-03-08T05:20:11.922Z,5.37
2019-03-08T05:22:39.256Z,4.67
2019-03-08T05:25:06.788Z,6.10
2019-03-08T05:27:34.230Z,4.87
2019-03-08T05:30:01.511Z,5.20
2019-03-08T05:32:28.840Z,5.43
2019-03-08T05:34:56.073Z,4.80
2019-03-08T05:37:23.340Z,4.53
2019-03-08T05:39:50.559Z,5.50
2019-03-08T05:42:17.826Z,5.03
2019-03-08T05:44:45.099Z,5.43
2019-03-08T05:47:12.431Z,4.77
2019-03-08T05:49:39.717Z,4.90
2019-03-08T05:52:07.094Z,5.03
2019-03-08T05:54:34.331Z,4.63
2019-03-08T05:57:01.610Z,4.80
2019-03-08T05:59:28.878Z,3.77
2019-03-08T06:01:56.142Z,3.60
2019-03-08T06:04:23.413Z,2.77
2019-03-08T06:06:50.997Z,3.23
2019-03-08T06:09:18.270Z,3.13
2019-03-08T06:11:45.509Z,3.50
2019-03-08T06:14:12.819Z,3.90
2019-03-08T06:16:40.071Z,3.80
2019-03-08T06:19:07.438Z,3.23
2019-03-08T06:21:34.716Z,4.17
2019-03-08T06:24:02.004Z,4.53
2019-03-08T06:26:29.263Z,4.57
2019-03-08T06:28:56.540Z,5.07
2019-03-08T06:31:23.792Z,5.30
2019-03-08T06:33:51.062Z,5.10
2019-03-08T06:36:18.539Z,6.00
2019-03-08T06:38:45.812Z,5.20
2019-03-08T06:41:13.415Z,5.70
2019-03-08T06:43:40.640Z,4.97
2019-03-08T06:46:07.927Z,5.27
2019-03-08T06:48:35.183Z,4.10
2019-03-08T06:51:02.457Z,4.70
2019-03-08T06:53:29.965Z,4.30
2019-03-08T06:55:57.201Z,4.37
2019-03-08T06:58:44.005Z,3.40
2019-03-08T07:01:15.420Z,4.30
2019-03-08T07:03:42.689Z,3.80
2019-03-08T07:06:09.964Z,3.30
2019-03-08T07:08:37.251Z,4.20
2019-03-08T07:11:04.580Z,3.70
2019-03-08T07:13:31.827Z,3.73
2019-03-08T07:15:59.061Z,3.93
2019-03-08T07:18:27.763Z,3.40
2019-03-08T07:21:14.551Z,3.77
2019-03-08T07:24:10.287Z,4.60
2019-03-08T07:26:50.098Z,4.70
2019-03-08T07:29:39.299Z,4.80
2019-03-08T07:32:26.121Z,3.80
2019-03-08T07:35:11.823Z,4.57
2019-03-08T07:38:01.432Z,4.80
2019-03-08T07:40:38.011Z,4.20
2019-03-08T07:43:24.799Z,3.80
2019-03-08T07:46:10.375Z,5.60
2019-03-08T07:48:57.204Z,4.10
2019-03-08T07:51:42.504Z,4.47
2019-03-08T07:54:25.041Z,4.37
2019-03-08T07:57:14.710Z,3.73
2019-03-08T08:00:04.115Z,3.63
2019-03-08T08:02:48.663Z,3.60
2019-03-08T08:05:57.964Z,3.83
2019-03-08T08:08:31.283Z,2.90
2019-03-08T08:11:36.000Z,3.47
2019-03-08T08:14:19.310Z,3.07
2019-03-08T08:16:55.752Z,2.60
2019-03-08T08:19:38.185Z,3.53
2019-03-08T08:22:19.154Z,2.90
2019-03-08T08:24:54.941Z,3.47
2019-03-08T08:27:38.883Z,3.57
2019-03-08T08:30:23.718Z,2.93
2019-03-08T08:33:23.362Z,3.33
2019-03-08T08:36:13.251Z,3.17
2019-03-08T08:38:48.202Z,4.00
2019-03-08T08:41:52.924Z,3.40
2019-03-08T08:44:53.115Z,4.47
2019-03-08T08:47:40.001Z,2.80
2019-03-08T08:50:29.964Z,3.07
2019-03-08T08:53:07.709Z,4.07
2019-03-08T08:55:41.335Z,3.90
2019-03-08T08:58:34.059Z,3.63
2019-03-08T09:01:17.115Z,3.10
2019-03-08T09:04:04.129Z,2.90
2019-03-08T09:06:53.496Z,3.07
2019-03-08T09:09:36.230Z,3.40
2019-03-08T09:12:11.582Z,3.33
2019-03-08T09:14:58.375Z,3.20
2019-03-08T09:18:00.074Z,3.43
2019-03-08T09:20:50.605Z,2.43
2019-03-08T09:23:27.011Z,3.60
2019-03-08T09:26:19.449Z,3.20
2019-03-08T09:28:52.620Z,3.00
2019-03-08T09:31:39.453Z,3.40
2019-03-08T09:34:26.294Z,4.07
2019-03-08T09:37:11.543Z,3.43
2019-03-08T09:39:54.754Z,3.47
2019-03-08T09:42:41.596Z,3.67
2019-03-08T09:45:32.136Z,3.60
2019-03-08T09:48:08.949Z,3.83
2019-03-08T09:50:59.945Z,4.40
2019-03-08T09:54:05.649Z,4.10
2019-03-08T09:56:52.470Z,3.70
2019-03-08T09:59:35.104Z,3.97
2019-03-08T10:02:09.067Z,4.57
2019-03-08T10:05:02.673Z,3.90
2019-03-08T10:08:01.740Z,4.20
2019-03-08T10:10:48.566Z,3.30
2019-03-08T10:13:41.053Z,4.27
2019-03-08T10:16:31.586Z,3.83
2019-03-08T10:19:12.640Z,3.90
2019-03-08T10:21:52.982Z,4.60
2019-03-08T10:24:51.825Z,3.93
2019-03-08T10:27:38.357Z,4.00
2019-03-08T10:30:31.891Z,4.43
2019-03-08T10:33:17.954Z,3.73
2019-03-08T10:36:17.189Z,4.13
2019-03-08T10:39:13.211Z,3.37
2019-03-08T10:42:06.341Z,3.47
2019-03-08T10:44:51.224Z,2.87
2019-03-08T10:47:37.918Z,3.33
2019-03-08T10:50:25.570Z,2.93
2019-03-08T10:53:20.727Z,2.77
2019-03-08T10:56:06.080Z,3.63
2019-03-08T10:58:36.460Z,3.43
2019-03-08T11:01:22.783Z,2.87
2019-03-08T11:04:07.131Z,2.63
2019-03-08T11:07:11.883Z,2.73
2019-03-08T11:09:57.499Z,2.70
2019-03-08T11:13:02.296Z,2.97
2019-03-08T11:15:44.400Z,3.63
2019-03-08T11:18:43.109Z,3.53
2019-03-08T11:21:18.399Z,5.90
2019-03-08T11:24:17.311Z,4.50
2019-03-08T11:27:05.207Z,2.80
2019-03-08T11:30:03.414Z,3.33
2019-03-08T11:32:46.277Z,3.73
2019-03-08T11:35:33.057Z,3.13
2019-03-08T11:38:05.243Z,3.30
2019-03-08T11:41:00.722Z,3.70
2019-03-08T11:43:39.481Z,2.80
2019-03-08T11:46:26.313Z,2.87
2019-03-08T11:49:28.219Z,3.77
2019-03-08T11:52:17.948Z,2.90
2019-03-08T11:55:04.807Z,2.97
2019-03-08T11:57:57.510Z,3.43
2019-03-08T12:00:31.029Z,3.20
2019-03-08T12:03:07.348Z,2.57
2019-03-08T12:05:44.159Z,2.83
2019-03-08T12:08:29.649Z,3.03
2019-03-08T12:11:27.640Z,2.90
2019-03-08T12:14:07.926Z,2.87
2019-03-08T12:17:01.298Z,2.60
2019-03-08T12:19:51.006Z,2.57
2019-03-08T12:22:36.352Z,2.73
2019-03-08T12:25:18.720Z,2.50
2019-03-08T12:28:11.423Z,2.40
2019-03-08T12:30:56.813Z,2.20
2019-03-08T12:33:43.703Z,2.57
2019-03-08T12:36:45.275Z,2.37
2019-03-08T12:39:30.707Z,2.63
2019-03-08T12:42:20.362Z,2.77
2019-03-08T12:45:13.106Z,2.80
2019-03-08T12:47:54.843Z,2.70
2019-03-08T12:50:35.946Z,2.10
2019-03-08T12:53:20.531Z,2.60
2019-03-08T12:56:09.962Z,2.67
2019-03-08T12:58:55.310Z,2.80
2019-03-08T13:01:38.528Z,3.37
2019-03-08T13:04:13.512Z,3.10
2019-03-08T13:07:00.426Z,2.50
2019-03-08T13:09:45.512Z,2.70
2019-03-08T13:12:12.808Z,2.33
2019-03-08T13:14:40.083Z,3.20
2019-03-08T13:17:07.312Z,2.47
2019-03-08T13:19:36.145Z,2.80
2019-03-08T13:22:05.734Z,2.90
2019-03-08T13:24:33.048Z,2.20
2019-03-08T13:27:00.362Z,2.00
2019-03-08T13:29:27.711Z,1.97
2019-03-08T13:31:55.123Z,2.20
2019-03-08T13:34:22.425Z,2.03
2019-03-08T13:36:49.791Z,2.33
2019-03-08T13:39:17.102Z,2.23
2019-03-08T13:41:44.430Z,1.97
2019-03-08T13:44:11.772Z,2.43
2019-03-08T13:46:39.038Z,2.00
2019-03-08T13:49:06.433Z,2.00
2019-03-08T13:51:35.982Z,2.37
2019-03-08T13:54:03.726Z,1.70
2019-03-08T13:56:30.965Z,2.10
2019-03-08T13:58:58.185Z,1.80
2019-03-08T14:01:25.684Z,2.00
2019-03-08T14:03:52.952Z,1.67
2019-03-08T14:06:20.203Z,1.73
2019-03-08T14:08:47.598Z,1.97
2019-03-08T14:11:14.843Z,2.03
2019-03-08T14:13:44.807Z,2.33
2019-03-08T14:16:12.211Z,2.20
2019-03-08T14:18:39.465Z,1.60
2019-03-08T14:21:06.898Z,2.30
2019-03-08T14:23:34.460Z,2.10
2019-03-08T14:26:01.765Z,2.07
2019-03-08T14:28:29.018Z,1.80
2019-03-08T14:31:04.735Z,2.70
2019-03-08T14:33:34.315Z,2.20
2019-03-08T14:36:02.962Z,1.90
2019-03-08T14:38:36.232Z,1.93
2019-03-08T14:41:09.597Z,2.80
2019-03-08T14:43:52.513Z,2.13
2019-03-08T14:46:36.634Z,2.60
2019-03-08T14:49:04.009Z,2.13
2019-03-08T14:51:31.299Z,1.83
2019-03-08T14:53:58.713Z,1.70
2019-03-08T14:56:25.997Z,2.23
2019-03-08T14:58:53.568Z,1.80
2019-03-08T15:01:20.980Z,2.10
2019-03-08T15:03:48.334Z,2.20
2019-03-08T15:06:15.587Z,2.00
2019-03-08T15:08:44.952Z,1.93
2019-03-08T15:11:12.214Z,2.40
2019-03-08T15:13:39.698Z,1.97
2019-03-08T15:16:07.033Z,2.50
2019-03-08T15:18:34.537Z,2.57
2019-03-08T15:21:02.096Z,3.00
2019-03-08T15:23:29.442Z,3.00
2019-03-08T15:25:56.849Z,2.77
2019-03-08T15:28:24.401Z,3.03
2019-03-08T15:30:51.798Z,2.30
2019-03-08T15:33:19.076Z,2.30
2019-03-08T15:35:46.404Z,2.67
2019-03-08T15:38:13.768Z,3.40
2019-03-08T15:40:41.018Z,3.13
2019-03-08T15:43:09.589Z,3.07
2019-03-08T15:45:40.135Z,3.27
2019-03-08T15:48:06.644Z,3.70
2019-03-08T15:50:33.930Z,2.97
2019-03-08T15:53:04.655Z,2.97
2019-03-08T15:55:32.285Z,2.73
2019-03-08T15:57:59.770Z,2.60
2019-03-08T16:00:27.022Z,2.60
2019-03-08T16:02:54.792Z,3.00
2019-03-08T16:05:23.991Z,2.17
2019-03-08T16:07:51.209Z,2.10
2019-03-08T16:10:19.274Z,2.50
2019-03-08T16:12:46.613Z,2.70
2019-03-08T16:15:15.658Z,2.40
2019-03-08T16:17:42.940Z,2.67
2019-03-08T16:20:11.959Z,2.30
2019-03-08T16:22:39.338Z,2.50
2019-03-08T16:25:08.342Z,2.13
2019-03-08T16:27:37.729Z,2.50
2019-03-08T16:30:11.004Z,2.77
2019-03-08T16:32:46.254Z,2.13
2019-03-08T16:35:13.550Z,2.37
2019-03-08T16:38:00.654Z,2.53
2019-03-08T16:40:39.271Z,2.27
2019-03-08T16:43:24.601Z,2.10
2019-03-08T16:46:13.842Z,2.80
2019-03-08T16:48:47.506Z,2.40
2019-03-08T16:51:34.483Z,2.00
2019-03-08T16:54:20.960Z,2.40
2019-03-08T16:57:20.005Z,2.00
2019-03-08T16:59:57.672Z,2.23
2019-03-08T17:02:53.109Z,2.50
2019-03-08T17:05:55.017Z,2.30
2019-03-08T17:08:41.882Z,2.33
2019-03-08T17:11:28.987Z,2.43
2019-03-08T17:14:24.665Z,2.37
2019-03-08T17:17:11.475Z,1.90
2019-03-08T17:19:58.322Z,2.63
2019-03-08T17:22:42.940Z,1.97
2019-03-08T17:25:29.992Z,2.73
2019-03-08T17:28:07.027Z,2.63
2019-03-08T17:31:08.810Z,2.60
2019-03-08T17:34:01.601Z,2.03
2019-03-08T17:36:40.872Z,2.53
2019-03-08T17:39:18.758Z,2.90
2019-03-08T17:42:08.855Z,3.10
2019-03-08T17:45:07.786Z,2.83
2019-03-08T17:47:51.999Z,2.20
2019-03-08T17:50:29.875Z,2.40
2019-03-08T17:53:14.978Z,2.30
2019-03-08T17:56:00.624Z,2.73
2019-03-08T17:59:03.859Z,2.70
2019-03-08T18:01:46.645Z,2.40
2019-03-08T18:04:20.684Z,2.53
2019-03-08T18:07:05.895Z,2.90
2019-03-08T18:09:51.355Z,3.40
2019-03-08T18:12:44.033Z,4.50
2019-03-08T18:15:28.906Z,3.37
2019-03-08T18:18:01.983Z,4.03
2019-03-08T18:20:39.186Z,2.93
2019-03-08T18:23:17.630Z,2.50
2019-03-08T18:25:54.512Z,2.83
2019-03-08T18:28:50.555Z,3.07
2019-03-08T18:31:49.049Z,3.17
2019-03-08T18:34:36.788Z,2.50
2019-03-08T18:37:23.896Z,2.43
2019-03-08T18:40:17.202Z,2.60
2019-03-08T18:43:02.737Z,2.77
2019-03-08T18:45:55.582Z,2.40
2019-03-08T18:48:43.359Z,2.20
2019-03-08T18:51:24.611Z,2.67
2019-03-08T18:54:14.623Z,3.20
2019-03-08T18:57:04.620Z,3.27
2019-03-08T18:59:48.356Z,3.37
2019-03-08T19:02:35.025Z,2.70
2019-03-08T19:05:25.063Z,3.37
2019-03-08T19:08:09.407Z,3.40
2019-03-08T19:10:54.932Z,3.20
2019-03-08T19:13:49.102Z,4.03
2019-03-08T19:16:39.612Z,3.37
2019-03-08T19:19:24.767Z,3.80
2019-03-08T19:22:26.180Z,3.80
2019-03-08T19:25:24.438Z,3.83
2019-03-08T19:28:11.718Z,2.90
2019-03-08T19:31:07.650Z,3.63
2019-03-08T19:34:01.217Z,3.30
2019-03-08T19:36:57.576Z,3.40
2019-03-08T19:39:36.374Z,4.17
2019-03-08T19:42:14.370Z,3.57
2019-03-08T19:45:02.985Z,4.20
2019-03-08T19:47:48.964Z,4.07
2019-03-08T19:50:38.816Z,4.13
2019-03-08T19:53:34.336Z,3.90
2019-03-08T19:56:21.172Z,3.60
2019-03-08T19:59:05.641Z,4.00
2019-03-08T20:01:52.437Z,4.27
2019-03-08T20:04:35.013Z,3.90
2019-03-08T20:07:13.321Z,4.20
2019-03-08T20:09:56.796Z,4.93
2019-03-08T20:12:43.864Z,3.77
2019-03-08T20:15:23.053Z,3.90
2019-03-08T20:17:55.307Z,4.07
2019-03-08T20:20:34.859Z,4.30
2019-03-08T20:23:21.716Z,4.37
2019-03-08T20:26:20.684Z,4.67
2019-03-08T20:29:16.520Z,3.90
2019-03-08T20:31:55.556Z,3.73
2019-03-08T20:34:41.698Z,4.20
2019-03-08T20:37:27.547Z,4.00
2019-03-08T20:40:23.567Z,3.87
2019-03-08T20:43:13.089Z,4.07
2019-03-08T20:45:47.777Z,3.67
2019-03-08T20:48:15.202Z,3.27
2019-03-08T20:50:42.484Z,3.77
2019-03-08T20:53:09.769Z,4.60
2019-03-08T20:55:37.520Z,3.63
2019-03-08T20:58:04.856Z,4.23
2019-03-08T21:00:32.259Z,3.73
2019-03-08T21:03:00.714Z,4.03
2019-03-08T21:05:28.899Z,4.37
2019-03-08T21:07:56.195Z,3.87
2019-03-08T21:10:23.443Z,4.40
2019-03-08T21:12:50.669Z,4.20
2019-03-08T21:15:24.993Z,4.13
2019-03-08T21:17:47.096Z,3.97
2019-03-08T21:20:14.439Z,4.30
2019-03-08T21:22:42.301Z,4.40
2019-03-08T21:25:10.017Z,4.23
2019-03-08T21:27:37.256Z,3.70
2019-03-08T21:30:06.048Z,4.03
2019-03-08T21:32:33.324Z,3.40
2019-03-08T21:35:00.618Z,3.67
2019-03-08T21:37:27.858Z,3.80
2019-03-08T21:39:55.086Z,3.93
2019-03-08T21:42:22.364Z,3.47
2019-03-08T21:44:52.037Z,3.67
2019-03-08T21:47:19.290Z,3.10
2019-03-08T21:49:46.561Z,3.60
2019-03-08T21:52:13.809Z,4.00
2019-03-08T21:54:41.458Z,3.87
2019-03-08T21:57:08.695Z,4.87
2019-03-08T21:59:36.103Z,3.67
2019-03-08T22:02:03.335Z,3.43
2019-03-08T22:04:53.026Z,4.20
2019-03-08T22:07:20.268Z,3.20
2019-03-08T22:09:55.553Z,3.60
2019-03-08T22:12:22.804Z,3.53
2019-03-08T22:14:50.235Z,2.97
2019-03-08T22:17:17.538Z,3.83
2019-03-08T22:19:44.860Z,3.73
2019-03-08T22:22:12.123Z,2.77
2019-03-08T22:24:39.452Z,3.37
2019-03-08T22:27:06.700Z,2.80
2019-03-08T22:29:34.056Z,2.23
2019-03-08T22:32:01.363Z,2.93
2019-03-08T22:34:29.146Z,3.10
2019-03-08T22:36:56.459Z,3.37
2019-03-08T22:39:23.700Z,3.43
2019-03-08T22:41:50.994Z,3.80
2019-03-08T22:44:18.357Z,3.20
2019-03-08T22:46:46.557Z,3.37
2019-03-08T22:49:14.066Z,2.40
2019-03-08T22:51:41.405Z,2.80
2019-03-08T22:54:08.955Z,4.50
2019-03-08T22:56:36.248Z,3.77
2019-03-08T22:59:03.503Z,2.97
2019-03-08T23:01:46.393Z,3.20
2019-03-08T23:04:13.716Z,3.30
2019-03-08T23:06:41.050Z,3.60
2019-03-08T23:09:09.964Z,3.40
2019-03-08T23:11:37.236Z,3.37
2019-03-08T23:14:04.683Z,3.00
2019-03-08T23:16:31.931Z,3.53
2019-03-08T23:19:01.440Z,2.90
2019-03-08T23:21:29.002Z,3.00
2019-03-08T23:23:56.295Z,2.80
2019-03-08T23:26:23.539Z,2.60
2019-03-08T23:29:08.570Z,2.83
2019-03-08T23:31:58.112Z,2.47
2019-03-08T23:34:25.715Z,2.80
2019-03-08T23:36:52.966Z,2.63
2019-03-08T23:39:20.242Z,3.10
2019-03-08T23:41:47.494Z,2.80
2019-03-08T23:44:14.778Z,2.40
2019-03-08T23:46:42.070Z,2.50
2019-03-08T23:49:09.372Z,2.30
2019-03-08T23:51:37.100Z,2.57
2019-03-08T23:54:04.489Z,3.27
2019-03-08T23:56:31.747Z,2.60
2019-03-08T23:58:59.045Z,2.93
